Time;durP1;ratioP1;P1;durP2;ratioP2;P2;SDS_P1;SDS_P2;PMS_P1;PMS_P2;Temp;Humidity;BMP_temperature;BMP_pressure;BME280_temperature;BME280_humidity;BME280_pressure;Samples;Min_cycle;Max_cycle;Signal;HPM_P1;HPM_P2
2023/02/15 00:02:21;;;;;;;;;;;;;;;5.26;53.55;100933.47;5091476;28;19912;-41
2023/02/15 00:04:46;;;;;;;;;;;;;;;5.13;53.78;100932.91;5091384;28;19916;-41
2023/02/15 00:07:13;;;;;;;;;;;;;;;4.70;54.61;100927.88;5091210;28;20526;-41
2023/02/15 00:09:38;;;;;;;;;;;;;;;4.57;55.30;100932.56;5091038;28;19919;-40
2023/02/15 00:12:03;;;;;;;;;;;;;;;4.84;54.78;100934.56;5090976;28;19916;-41
2023/02/15 00:14:28;;;;;;;;;;;;;;;4.62;55.34;100934.78;5090989;28;20421;-42
2023/02/15 00:16:54;;;;;;;;;;;;;;;4.66;55.68;100938.81;5090901;28;19923;-42
2023/02/15 00:19:20;;;;;;;;;;;;;;;4.55;55.61;100944.19;5090945;28;19926;-41
2023/02/15 00:21:47;;;;;;;;;;;;;;;4.68;55.61;100945.66;5091777;28;20010;-41
2023/02/15 00:24:13;;;;;;;;;;;;;;;4.88;55.08;100940.38;5091171;28;20413;-40
2023/02/15 00:26:39;;;;;;;;;;;;;;;4.17;57.22;100945.75;5076332;28;20355;-41
2023/02/15 00:29:04;;;;;;;;;;;;;;;4.29;57.21;100937.59;5071010;28;19924;-41
2023/02/15 00:31:31;;;;;;;;;;;;;;;4.23;57.42;100943.41;5071388;28;19912;-41
2023/02/15 00:34:16;;;;;;;;;;;;;;;4.13;57.94;100936.44;5071302;28;19912;-41
2023/02/15 00:36:42;;;;;;;;;;;;;;;4.29;57.30;100928.88;5070882;28;20483;-42
2023/02/15 00:39:08;;;;;;;;;;;;;;;4.31;57.35;100943.59;5070893;28;20003;-40
2023/02/15 00:41:34;;;;;;;;;;;;;;;4.26;56.97;100945.78;5071402;28;19916;-41
2023/02/15 00:43:59;;;;;;;;;;;;;;;4.28;56.93;100946.50;5071003;28;19927;-40
2023/02/15 00:46:24;;;;;;;;;;;;;;;4.25;57.13;100944.13;5070697;28;19919;-41
2023/02/15 00:48:50;;;;;;;;;;;;;;;4.31;56.92;100942.75;5071195;28;19944;-42
2023/02/15 00:51:15;;;;;;;;;;;;;;;4.16;57.07;100944.09;5071306;28;19913;-41
2023/02/15 00:53:40;;;;;;;;;;;;;;;4.49;56.14;100945.56;5070953;28;19912;-41
2023/02/15 00:56:06;;;;;;;;;;;;;;;4.45;56.57;100941.53;5071504;28;19916;-41
2023/02/15 00:58:31;;;;;;;;;;;;;;;4.28;56.88;100933.31;5074916;28;19912;-40
2023/02/15 01:01:02;;;;;;;;;;;;;;;4.27;56.85;100938.72;5074866;28;19912;-40
2023/02/15 01:03:27;;;;;;;;;;;;;;;4.20;56.96;100932.31;5075120;28;19913;-41
2023/02/15 01:05:52;;;;;;;;;;;;;;;4.14;57.14;100933.66;5075219;28;19913;-42
2023/02/15 01:08:18;;;;;;;;;;;;;;;4.29;56.76;100934.97;5074653;28;20343;-41
2023/02/15 01:10:45;;;;;;;;;;;;;;;4.31;56.93;100930.41;5074788;28;19912;-41
2023/02/15 01:13:10;;;;;;;;;;;;;;;4.23;57.14;100932.88;5074715;28;19919;-42
2023/02/15 01:15:36;;;;;;;;;;;;;;;4.11;57.68;100926.88;5074855;28;20010;-42
2023/02/15 01:18:01;;;;;;;;;;;;;;;4.22;57.36;100927.75;5074609;28;20049;-42
2023/02/15 01:20:28;;;;;;;;;;;;;;;4.20;57.34;100909.41;5074466;28;19912;-41
2023/02/15 01:22:53;;;;;;;;;;;;;;;4.01;57.89;100918.09;5074201;28;19986;-42
2023/02/15 01:25:20;;;;;;;;;;;;;;;4.28;57.36;100916.66;5078881;28;19915;-41
2023/02/15 01:27:45;;;;;;;;;;;;;;;4.23;57.75;100909.16;5094975;28;19994;-40
2023/02/15 01:30:12;;;;;;;;;;;;;;;4.00;57.59;100907.66;5094447;28;19958;-42
2023/02/15 01:32:37;;;;;;;;;;;;;;;4.22;57.51;100901.38;5094689;28;19912;-42
2023/02/15 01:35:02;;;;;;;;;;;;;;;4.20;57.31;100909.41;5094237;28;20284;-41
2023/02/15 01:37:29;;;;;;;;;;;;;;;4.13;57.33;100910.91;5094712;28;19920;-40
2023/02/15 01:39:55;;;;;;;;;;;;;;;3.98;57.83;100910.47;5094547;28;19935;-41
2023/02/15 01:42:27;;;;;;;;;;;;;;;4.12;57.71;100919.81;5094666;28;19963;-41
2023/02/15 01:45:00;;;;;;;;;;;;;;;4.01;57.77;100909.34;5094403;28;19920;-41
2023/02/15 01:47:34;;;;;;;;;;;;;;;4.20;57.67;100919.97;5093924;28;20341;-41
2023/02/15 01:50:03;;;;;;;;;;;;;;;4.33;56.98;100919.72;5094353;28;19920;-41
2023/02/15 01:52:28;;;;;;;;;;;;;;;4.21;57.25;100919.00;5094077;28;19912;-41
2023/02/15 01:54:54;;;;;;;;;;;;;;;4.36;57.08;100918.63;5093955;28;19962;-41
2023/02/15 01:57:22;;;;;;;;;;;;;;;4.45;56.84;100929.19;5093836;28;19923;-41
2023/02/15 01:59:50;;;;;;;;;;;;;;;4.59;56.55;100930.63;5093875;28;19912;-41
2023/02/15 02:02:16;;;;;;;;;;;;;;;4.87;55.35;100930.78;5093979;28;19937;-41
2023/02/15 02:04:52;;;;;;;;;;;;;;;4.45;56.52;100939.72;5093939;28;19912;-41
2023/02/15 02:07:20;;;;;;;;;;;;;;;4.55;56.86;100945.06;5093272;28;19916;-42
2023/02/15 02:09:45;;;;;;;;;;;;;;;4.87;55.80;100939.56;5094269;28;19912;-42
2023/02/15 02:12:11;;;;;;;;;;;;;;;4.38;57.31;100943.03;5093769;28;19954;-42
2023/02/15 02:14:37;;;;;;;;;;;;;;;4.41;57.75;100942.78;5093759;28;19912;-41
2023/02/15 02:17:09;;;;;;;;;;;;;;;4.45;57.45;100949.44;5093810;28;19920;-42
2023/02/15 02:19:52;;;;;;;;;;;;;;;4.74;56.74;100951.31;5093467;28;20449;-42
2023/02/15 02:22:17;;;;;;;;;;;;;;;4.67;56.99;100953.69;5093235;28;19916;-42
2023/02/15 02:24:43;;;;;;;;;;;;;;;4.27;57.45;100947.47;5093559;28;20319;-42
2023/02/15 02:27:29;;;;;;;;;;;;;;;3.83;58.78;100948.66;5093461;28;19912;-42
2023/02/15 02:30:12;;;;;;;;;;;;;;;4.22;58.84;100952.28;5093411;28;20376;-41
2023/02/15 02:32:50;;;;;;;;;;;;;;;4.58;57.49;100950.03;5093426;28;19912;-42
2023/02/15 02:35:21;;;;;;;;;;;;;;;4.26;57.58;100948.41;5093004;28;19916;-42
2023/02/15 02:38:15;;;;;;;;;;;;;;;4.56;57.51;100948.53;5093408;28;19942;-42
2023/02/15 02:40:52;;;;;;;;;;;;;;;4.33;58.03;100950.53;5072796;28;19935;-42
2023/02/15 02:43:25;;;;;;;;;;;;;;;4.35;57.65;100956.50;5093196;28;19920;-42
2023/02/15 02:46:13;;;;;;;;;;;;;;;4.20;58.14;100954.22;5093186;28;20018;-41
2023/02/15 02:48:39;;;;;;;;;;;;;;;4.45;57.57;100957.34;5092111;28;19968;-41
2023/02/15 02:51:04;;;;;;;;;;;;;;;4.41;57.35;100958.59;5092862;28;19916;-42
2023/02/15 02:53:31;;;;;;;;;;;;;;;4.45;56.71;100958.19;5092956;28;20301;-42
2023/02/15 02:55:59;;;;;;;;;;;;;;;4.65;56.00;100955.63;5093333;28;19923;-42
2023/02/15 02:58:36;;;;;;;;;;;;;;;4.61;55.90;100960.34;5092865;28;19911;-43
2023/02/15 03:01:09;;;;;;;;;;;;;;;4.57;56.02;100958.94;5092927;28;19912;-43
2023/02/15 03:03:52;;;;;;;;;;;;;;;4.52;56.48;100958.50;5092897;28;19919;-41
2023/02/15 03:06:27;;;;;;;;;;;;;;;4.56;56.22;100959.88;5092635;28;19915;-43
2023/02/15 03:09:00;;;;;;;;;;;;;;;4.43;56.39;100954.03;5092563;28;20351;-42
2023/02/15 03:11:26;;;;;;;;;;;;;;;4.47;56.59;100965.97;5092898;28;19912;-42
2023/02/15 03:13:51;;;;;;;;;;;;;;;4.44;56.62;100966.25;5092664;28;19912;-41
2023/02/15 03:16:27;;;;;;;;;;;;;;;4.40;56.73;100965.69;5092379;28;19923;-41
2023/02/15 03:19:05;;;;;;;;;;;;;;;4.46;56.77;100966.94;5091775;28;19920;-41
2023/02/15 03:21:40;;;;;;;;;;;;;;;4.67;56.41;100978.25;5092000;28;20026;-41
2023/02/15 03:24:14;;;;;;;;;;;;;;;4.60;56.59;100963.94;5092014;28;19924;-41
2023/02/15 03:26:42;;;;;;;;;;;;;;;4.58;56.68;100962.41;5090510;28;19916;-41
2023/02/15 03:29:09;;;;;;;;;;;;;;;4.44;57.29;100966.25;5092340;28;20007;-41
2023/02/15 03:31:37;;;;;;;;;;;;;;;4.46;57.40;100959.03;5091955;28;20214;-41
2023/02/15 03:34:04;;;;;;;;;;;;;;;4.65;56.92;100959.09;5092525;28;19916;-41
2023/02/15 03:37:05;;;;;;;;;;;;;;;4.08;57.52;100964.00;5092035;28;19920;-41
2023/02/15 03:39:41;;;;;;;;;;;;;;;4.65;56.38;100961.72;5069281;28;19913;-41
2023/02/15 03:42:27;;;;;;;;;;;;;;;4.54;56.35;100967.09;5089184;28;19966;-41
2023/02/15 03:44:53;;;;;;;;;;;;;;;4.49;57.10;100967.53;5092123;28;19927;-41
2023/02/15 03:47:21;;;;;;;;;;;;;;;4.46;56.48;100964.31;5091775;28;20288;-40
2023/02/15 03:49:59;;;;;;;;;;;;;;;4.30;57.18;100965.66;5092289;28;19935;-41
2023/02/15 03:52:27;;;;;;;;;;;;;;;4.16;57.80;100973.91;5091903;28;19919;-41
2023/02/15 03:54:53;;;;;;;;;;;;;;;4.58;56.78;100971.13;5092199;28;19974;-40
2023/02/15 04:03:11;;;;;;;;;;;;;;;4.18;58.45;100979.88;5091860;28;19945;-41
2023/02/15 04:05:36;;;;;;;;;;;;;;;4.16;58.85;100981.81;5091740;28;19912;-41
2023/02/15 04:08:02;;;;;;;;;;;;;;;4.50;57.56;100984.16;5091896;28;19938;-41
2023/02/15 04:13:11;;;;;;;;;;;;;;;4.61;57.51;100986.69;5092178;28;19920;-41
2023/02/15 04:18:20;;;;;;;;;;;;;;;4.35;57.22;100982.84;5091578;28;20323;-41
2023/02/15 04:26:14;;;;;;;;;;;;;;;4.52;56.62;100984.84;5091615;28;20285;-42
2023/02/15 04:28:39;;;;;;;;;;;;;;;4.50;56.60;100986.81;5091423;28;19915;-42
2023/02/15 04:31:04;;;;;;;;;;;;;;;4.57;56.32;100992.34;5093880;28;19938;-42
2023/02/15 04:33:29;;;;;;;;;;;;;;;4.57;55.95;101001.13;5095689;28;20364;-42
2023/02/15 04:35:56;;;;;;;;;;;;;;;4.45;56.72;100999.53;5095515;28;20007;-42
2023/02/15 04:38:22;;;;;;;;;;;;;;;4.55;55.96;101004.84;5095476;28;20363;-42
2023/02/15 04:40:51;;;;;;;;;;;;;;;4.25;56.59;100999.47;5095466;28;19912;-42
2023/02/15 04:43:17;;;;;;;;;;;;;;;4.21;56.82;101013.88;5095470;28;19916;-41
2023/02/15 04:45:46;;;;;;;;;;;;;;;4.29;57.33;101013.22;5095456;28;19919;-42
2023/02/15 04:48:12;;;;;;;;;;;;;;;4.22;57.17;101012.88;5095285;28;19931;-42
2023/02/15 04:50:37;;;;;;;;;;;;;;;4.08;57.71;101011.44;5095200;28;19916;-42
2023/02/15 04:53:02;;;;;;;;;;;;;;;4.17;57.29;101020.38;5095529;28;19936;-41
2023/02/15 04:55:28;;;;;;;;;;;;;;;4.21;57.08;101027.03;5095099;28;19912;-41
2023/02/15 04:57:53;;;;;;;;;;;;;;;4.43;56.76;101022.56;5094781;28;20015;-41
2023/02/15 05:00:18;;;;;;;;;;;;;;;4.47;56.21;101030.09;5095303;28;19912;-42
2023/02/15 05:02:44;;;;;;;;;;;;;;;4.36;56.85;101024.03;5101604;28;19987;-45
2023/02/15 05:05:12;;;;;;;;;;;;;;;4.46;56.50;101038.94;5098233;28;19923;-41
2023/02/15 05:07:37;;;;;;;;;;;;;;;3.97;58.24;101034.38;5110595;28;20405;-41
2023/02/15 05:10:03;;;;;;;;;;;;;;;4.01;58.14;101039.25;5102348;28;19943;-41
2023/02/15 05:12:28;;;;;;;;;;;;;;;4.17;58.06;101036.19;5115697;28;19925;-42
2023/02/15 05:14:53;;;;;;;;;;;;;;;4.52;56.96;101042.03;5115304;28;19962;-42
2023/02/15 05:17:19;;;;;;;;;;;;;;;4.33;57.20;101034.88;5115042;28;19920;-42
2023/02/15 05:19:44;;;;;;;;;;;;;;;4.10;58.24;101054.28;5114929;28;19919;-42
2023/02/15 05:22:09;;;;;;;;;;;;;;;4.26;57.73;101053.81;5115067;28;20010;-42
2023/02/15 05:30:02;;;;;;;;;;;;;;;4.44;56.76;101058.50;5113024;28;19977;-42
2023/02/15 05:32:27;;;;;;;;;;;;;;;4.34;57.80;101060.25;5096170;28;19912;-43
2023/02/15 05:34:53;;;;;;;;;;;;;;;4.45;56.80;101073.34;5089063;28;19916;-43
2023/02/15 05:37:18;;;;;;;;;;;;;;;4.34;58.33;101065.50;5093926;28;19972;-43
2023/02/15 05:39:43;;;;;;;;;;;;;;;4.69;56.71;101073.88;5083164;28;19913;-42
2023/02/15 05:42:08;;;;;;;;;;;;;;;4.44;57.28;101069.06;5086063;28;19960;-42
2023/02/15 05:44:34;;;;;;;;;;;;;;;5.02;55.73;101079.81;5093153;28;19916;-41
2023/02/15 05:46:59;;;;;;;;;;;;;;;4.85;56.82;101081.28;5093185;28;19955;-42
2023/02/15 05:49:24;;;;;;;;;;;;;;;5.21;56.39;101070.28;5094076;28;19985;-42
2023/02/15 05:51:50;;;;;;;;;;;;;;;5.14;55.88;101071.78;5095252;28;20012;-42
2023/02/15 05:54:15;;;;;;;;;;;;;;;5.11;56.14;101085.28;5110650;28;20376;-43
2023/02/15 05:56:40;;;;;;;;;;;;;;;5.04;55.47;101083.16;5113601;28;19930;-42
2023/02/15 05:59:05;;;;;;;;;;;;;;;4.92;55.82;101076.31;5095200;28;20388;-43
2023/02/15 06:01:31;;;;;;;;;;;;;;;5.22;54.96;101087.81;5091920;28;19912;-41
2023/02/15 06:03:56;;;;;;;;;;;;;;;5.32;54.64;101087.81;5092910;28;19995;-42
2023/02/15 06:06:22;;;;;;;;;;;;;;;5.53;54.88;101095.63;5091970;28;19926;-42
2023/02/15 06:08:47;;;;;;;;;;;;;;;5.47;54.43;101086.44;5092064;28;20001;-42
2023/02/15 06:11:12;;;;;;;;;;;;;;;5.70;54.75;101087.00;5091958;28;19916;-42
2023/02/15 06:13:38;;;;;;;;;;;;;;;5.93;53.65;101086.72;5092225;28;19955;-42
2023/02/15 06:16:03;;;;;;;;;;;;;;;6.45;51.93;101093.34;5092955;28;20368;-42
2023/02/15 06:18:29;;;;;;;;;;;;;;;6.06;53.22;101092.59;5089936;28;19960;-43
2023/02/15 06:20:54;;;;;;;;;;;;;;;6.40;52.33;101097.41;5085134;28;20006;-42
2023/02/15 06:23:19;;;;;;;;;;;;;;;6.63;51.87;101106.66;5090500;28;20287;-42
2023/02/15 06:25:45;;;;;;;;;;;;;;;6.70;51.68;101108.72;5092831;28;19999;-42
2023/02/15 06:28:10;;;;;;;;;;;;;;;7.23;50.74;101103.59;5093068;28;20380;-43
2023/02/15 06:30:36;;;;;;;;;;;;;;;7.48;49.20;101103.00;5092064;28;20002;-42
2023/02/15 06:33:01;;;;;;;;;;;;;;;7.42;49.66;101104.44;5091792;28;19913;-43
2023/02/15 06:35:26;;;;;;;;;;;;;;;6.93;50.74;101106.53;5092173;28;19968;-42
2023/02/15 06:37:52;;;;;;;;;;;;;;;6.97;50.67;101103.44;5092257;28;20010;-43
2023/02/15 06:40:17;;;;;;;;;;;;;;;7.28;50.19;101112.91;5092331;28;20006;-42
2023/02/15 06:42:42;;;;;;;;;;;;;;;7.96;48.41;101123.03;5090990;28;19999;-42
2023/02/15 06:45:08;;;;;;;;;;;;;;;8.04;48.29;101115.13;5092345;28;20249;-43
2023/02/15 06:47:33;;;;;;;;;;;;;;;8.56;47.10;101111.72;5092792;28;19912;-43
2023/02/15 06:49:59;;;;;;;;;;;;;;;8.71;46.60;101104.81;5092755;28;20081;-44
2023/02/15 06:52:24;;;;;;;;;;;;;;;8.49;46.72;101108.88;5092348;28;19919;-43
2023/02/15 06:54:49;;;;;;;;;;;;;;;8.98;45.98;101109.09;5092136;28;20016;-42
2023/02/15 06:57:15;;;;;;;;;;;;;;;9.04;45.63;101112.09;5092422;28;19917;-42
2023/02/15 06:59:40;;;;;;;;;;;;;;;8.99;45.27;101116.06;5092859;28;19916;-42
2023/02/15 07:02:05;;;;;;;;;;;;;;;9.14;44.95;101123.44;5091503;28;19915;-42
2023/02/15 07:04:30;;;;;;;;;;;;;;;9.79;43.83;101118.28;5091242;28;19936;-42
2023/02/15 07:06:56;;;;;;;;;;;;;;;9.49;44.44;101105.59;5091215;28;19912;-42
2023/02/15 07:09:22;;;;;;;;;;;;;;;9.20;44.04;101101.56;5091331;28;19919;-42
2023/02/15 07:14:31;;;;;;;;;;;;;;;9.37;44.02;101108.56;5091347;28;19923;-42
2023/02/15 07:16:57;;;;;;;;;;;;;;;9.75;43.11;101105.50;5091722;28;19916;-46
2023/02/15 07:19:22;;;;;;;;;;;;;;;9.64;43.30;101106.63;5092037;28;19916;-42
2023/02/15 07:21:48;;;;;;;;;;;;;;;9.55;44.13;101099.63;5091861;28;20003;-42
2023/02/15 07:24:13;;;;;;;;;;;;;;;9.20;44.17;101096.25;5071589;28;19920;-42
2023/02/15 07:26:38;;;;;;;;;;;;;;;9.84;43.75;101098.34;5070759;28;19912;-42
2023/02/15 07:29:04;;;;;;;;;;;;;;;10.15;43.13;101104.66;5070690;28;20332;-42
2023/02/15 07:31:29;;;;;;;;;;;;;;;9.87;43.24;101082.88;5070772;28;19919;-42
2023/02/15 07:33:54;;;;;;;;;;;;;;;9.77;43.44;101103.50;5070733;28;20371;-42
2023/02/15 07:36:20;;;;;;;;;;;;;;;9.36;44.11;101098.09;5070787;28;19920;-42
2023/02/15 07:38:45;;;;;;;;;;;;;;;9.42;44.36;101100.09;5070579;28;20372;-41
2023/02/15 07:41:11;;;;;;;;;;;;;;;9.45;44.43;101102.44;5070884;28;19920;-42
2023/02/15 07:43:38;;;;;;;;;;;;;;;10.60;42.96;101094.44;5070376;28;19917;-42
2023/02/15 07:46:05;;;;;;;;;;;;;;;10.94;41.91;101099.50;5070075;28;19913;-42
2023/02/15 07:48:30;;;;;;;;;;;;;;;11.43;40.41;101105.59;5070371;28;20402;-42
2023/02/15 07:50:59;;;;;;;;;;;;;;;10.94;41.18;101104.00;5070263;28;20026;-43
2023/02/15 07:53:24;;;;;;;;;;;;;;;10.84;41.31;101108.72;5070325;28;20003;-41
2023/02/15 07:55:50;;;;;;;;;;;;;;;10.48;41.80;101117.13;5070426;28;20019;-41
2023/02/15 07:58:15;;;;;;;;;;;;;;;10.64;42.22;101122.41;5070451;28;19916;-40
2023/02/15 08:01:00;;;;;;;;;;;;;;;11.14;41.10;101115.09;5070287;28;19973;-42
2023/02/15 08:03:29;;;;;;;;;;;;;;;11.48;39.86;101113.88;5070104;28;20214;-41
2023/02/15 08:06:05;;;;;;;;;;;;;;;10.78;40.77;101106.75;5069507;28;19912;-43
2023/02/15 08:08:30;;;;;;;;;;;;;;;10.88;41.28;101097.53;5070225;28;19912;-42
2023/02/15 08:13:55;;;;;;;;;;;;;;;11.46;40.18;101105.22;5069749;28;19919;-42
2023/02/15 08:16:24;;;;;;;;;;;;;;;11.47;39.16;101096.25;5069841;28;19920;-43
2023/02/15 08:18:49;;;;;;;;;;;;;;;11.64;39.26;101108.44;5069767;28;19909;-42
2023/02/15 08:21:15;;;;;;;;;;;;;;;11.79;39.52;101115.69;5069798;28;19962;-40
2023/02/15 08:23:40;;;;;;;;;;;;;;;11.98;39.27;101109.09;5069922;28;19924;-41
2023/02/15 08:26:05;;;;;;;;;;;;;;;11.81;39.14;101105.69;5069866;28;20380;-43
2023/02/15 08:28:31;;;;;;;;;;;;;;;11.55;39.74;101107.66;5069650;28;20286;-42
2023/02/15 08:31:03;;;;;;;;;;;;;;;11.23;39.85;101113.19;5069741;28;19912;-42
2023/02/15 08:33:29;;;;;;;;;;;;;;;10.96;41.12;101116.13;5069707;28;19920;-42
2023/02/15 08:35:54;;;;;;;;;;;;;;;11.03;40.58;101112.81;5069315;28;20406;-42
2023/02/15 08:38:20;;;;;;;;;;;;;;;11.21;40.61;101112.53;5069744;28;19927;-42
2023/02/15 08:40:45;;;;;;;;;;;;;;;11.33;40.21;101114.63;5069964;28;20292;-42
2023/02/15 08:43:11;;;;;;;;;;;;;;;11.72;39.61;101108.38;5070330;28;19967;-42
2023/02/15 08:45:36;;;;;;;;;;;;;;;12.32;38.36;101112.09;5070677;28;19912;-42
2023/02/15 08:48:01;;;;;;;;;;;;;;;12.01;39.14;101114.88;5070675;28;20337;-42
2023/02/15 08:50:26;;;;;;;;;;;;;;;12.18;38.40;101112.06;5070390;28;19958;-42
2023/02/15 08:52:52;;;;;;;;;;;;;;;12.45;37.50;101111.47;5070368;28;20380;-41
2023/02/15 08:55:17;;;;;;;;;;;;;;;12.03;38.18;101112.88;5070048;28;20415;-42
2023/02/15 08:57:45;;;;;;;;;;;;;;;11.89;39.34;101111.78;5070200;28;20007;-42
2023/02/15 09:00:11;;;;;;;;;;;;;;;12.26;38.47;101103.97;5070787;28;19923;-42
2023/02/15 09:02:37;;;;;;;;;;;;;;;13.00;37.63;101109.34;5070800;28;20447;-42
2023/02/15 09:05:02;;;;;;;;;;;;;;;13.94;35.39;101105.06;5070674;28;19924;-42
2023/02/15 09:07:28;;;;;;;;;;;;;;;14.81;33.64;101106.50;5070704;28;19916;-41
2023/02/15 09:09:53;;;;;;;;;;;;;;;15.15;33.64;101108.31;5070710;28;19948;-42
2023/02/15 09:12:19;;;;;;;;;;;;;;;15.70;32.46;101102.88;5070063;28;19920;-42
2023/02/15 09:14:44;;;;;;;;;;;;;;;15.98;32.32;101099.25;5070779;28;19912;-43
2023/02/15 09:17:09;;;;;;;;;;;;;;;15.88;31.93;101106.84;5070768;28;20019;-42
2023/02/15 09:19:34;;;;;;;;;;;;;;;14.66;33.68;101099.44;5073952;28;19930;-41
2023/02/15 09:22:00;;;;;;;;;;;;;;;15.03;33.86;101089.28;5073539;28;19917;-43
2023/02/15 09:24:25;;;;;;;;;;;;;;;15.40;33.13;101091.69;5073483;28;19994;-41
2023/02/15 09:26:50;;;;;;;;;;;;;;;15.40;33.34;101083.63;5073894;28;20433;-43
2023/02/15 09:29:17;;;;;;;;;;;;;;;15.68;32.48;101085.34;5073727;28;20336;-41
2023/02/15 09:31:44;;;;;;;;;;;;;;;15.78;32.18;101088.47;5073793;28;20049;-42
2023/02/15 09:34:10;;;;;;;;;;;;;;;16.15;31.93;101088.91;5073599;28;19952;-42
2023/02/15 09:36:37;;;;;;;;;;;;;;;16.12;31.27;101079.38;5073622;28;19916;-42
2023/02/15 09:39:12;;;;;;;;;;;;;;;16.09;31.45;101089.72;5073436;28;20383;-42
2023/02/15 09:41:44;;;;;;;;;;;;;;;15.59;31.96;101084.69;5073449;28;20032;-43
2023/02/15 09:44:21;;;;;;;;;;;;;;;16.12;31.85;101086.63;5073587;28;20031;-43
2023/02/15 09:47:05;;;;;;;;;;;;;;;14.45;33.69;101076.19;5073505;28;20342;-42
2023/02/15 09:49:49;;;;;;;;;;;;;;;15.10;44.55;101075.06;5081724;28;20011;-42
2023/02/15 09:52:32;;;;;;;;;;;;;;;15.96;31.83;101072.59;5093917;28;19916;-42
2023/02/15 09:54:58;;;;;;;;;;;;;;;16.22;32.04;101063.69;5083341;28;19943;-42
2023/02/15 09:57:29;;;;;;;;;;;;;;;16.06;31.28;101063.31;5081875;28;19916;-42
2023/02/15 10:00:03;;;;;;;;;;;;;;;16.11;31.82;101063.50;5083046;28;19916;-42
2023/02/15 10:02:41;;;;;;;;;;;;;;;15.69;31.98;101063.69;5082139;28;19912;-43
2023/02/15 10:05:21;;;;;;;;;;;;;;;15.90;32.14;101060.00;5081582;28;19961;-43
2023/02/15 10:07:59;;;;;;;;;;;;;;;16.25;32.20;101057.06;5081642;28;20007;-42
2023/02/15 10:10:48;;;;;;;;;;;;;;;16.51;31.97;101058.06;5081987;28;20058;-42
2023/02/15 10:13:13;;;;;;;;;;;;;;;16.47;31.78;101046.91;5082556;28;19972;-43
2023/02/15 10:15:44;;;;;;;;;;;;;;;16.58;30.66;101051.66;5083011;28;20007;-42
2023/02/15 10:18:22;;;;;;;;;;;;;;;16.72;30.89;101048.91;5081767;28;20481;-43
2023/02/15 10:20:47;;;;;;;;;;;;;;;16.72;30.68;101038.16;5090373;28;19959;-42
2023/02/15 10:23:15;;;;;;;;;;;;;;;15.91;31.35;101045.53;5082910;28;19963;-42
2023/02/15 10:25:44;;;;;;;;;;;;;;;14.84;32.41;101033.75;5082882;28;19916;-43
2023/02/15 10:28:15;;;;;;;;;;;;;;;14.70;33.12;101035.56;5080789;28;19964;-42
2023/02/15 10:30:48;;;;;;;;;;;;;;;14.57;33.59;101024.78;5075128;28;19951;-37
2023/02/15 10:33:31;;;;;;;;;;;;;;;15.62;31.70;101028.78;5093393;28;19912;-37
2023/02/15 10:36:09;;;;;;;;;;;;;;;15.94;31.27;101025.53;5092643;28;20006;-38
2023/02/15 10:38:42;;;;;;;;;;;;;;;16.19;31.05;101017.63;5092878;28;19912;-37
2023/02/15 10:41:22;;;;;;;;;;;;;;;16.83;30.47;101012.50;5091344;28;19969;-39
2023/02/15 10:44:14;;;;;;;;;;;;;;;16.30;30.97;101011.63;5091460;28;20330;-37
2023/02/15 10:46:39;;;;;;;;;;;;;;;16.50;30.55;101008.03;5082688;28;19951;-36
2023/02/15 10:49:27;;;;;;;;;;;;;;;16.20;30.92;101005.84;5092451;28;19943;-38
2023/02/15 10:52:03;;;;;;;;;;;;;;;15.77;30.90;101006.31;5081595;28;19912;-38
2023/02/15 10:54:51;;;;;;;;;;;;;;;16.31;31.04;100997.13;5091953;28;19954;-37
2023/02/15 10:57:16;;;;;;;;;;;;;;;17.22;29.72;101000.69;5090296;28;19923;-36
2023/02/15 10:59:56;;;;;;;;;;;;;;;16.53;30.41;100995.00;5090813;28;19912;-37
2023/02/15 11:02:40;;;;;;;;;;;;;;;16.74;29.77;101001.97;5091887;28;20325;-39
2023/02/15 11:05:22;;;;;;;;;;;;;;;15.83;30.40;100992.88;5091660;28;19920;-37
2023/02/15 11:07:48;;;;;;;;;;;;;;;15.37;31.59;100999.03;5091951;28;19946;-37
2023/02/15 11:10:16;;;;;;;;;;;;;;;15.52;31.58;100998.03;5091030;28;20363;-38
2023/02/15 11:12:43;;;;;;;;;;;;;;;15.29;31.76;100996.56;5091320;28;20391;-37
2023/02/15 11:15:19;;;;;;;;;;;;;;;14.21;32.45;100981.09;5092284;28;19912;-37
2023/02/15 11:17:52;;;;;;;;;;;;;;;13.89;33.31;100978.00;5091975;28;19924;-37
2023/02/15 11:20:27;;;;;;;;;;;;;;;15.23;32.24;100990.16;5091839;28;19981;-37
2023/02/15 11:22:53;;;;;;;;;;;;;;;14.63;32.13;100981.13;5090946;28;19920;-38
2023/02/15 11:25:28;;;;;;;;;;;;;;;15.06;31.31;100970.13;5091708;28;20019;-38
2023/02/15 11:27:55;;;;;;;;;;;;;;;15.78;30.68;100971.25;5091361;28;20422;-37
2023/02/15 11:30:22;;;;;;;;;;;;;;;14.54;31.32;100968.88;5091147;28;19916;-37
2023/02/15 11:32:51;;;;;;;;;;;;;;;14.32;32.41;100957.44;5091213;28;19912;-37
2023/02/15 11:35:22;;;;;;;;;;;;;;;14.92;31.50;100963.06;5091325;28;20294;-37
2023/02/15 11:37:57;;;;;;;;;;;;;;;15.61;30.53;100953.84;5091376;28;20012;-35
2023/02/15 11:40:27;;;;;;;;;;;;;;;15.55;30.99;100952.81;5090638;28;19951;-38
2023/02/15 11:42:57;;;;;;;;;;;;;;;15.69;30.46;100950.97;5091942;28;19927;-37
2023/02/15 11:45:27;;;;;;;;;;;;;;;15.70;30.71;100946.44;5091433;28;19995;-36
2023/02/15 11:47:52;;;;;;;;;;;;;;;15.36;30.71;100948.28;5091336;28;19912;-38
2023/02/15 11:50:22;;;;;;;;;;;;;;;14.65;32.03;100945.06;5091436;28;19912;-38
2023/02/15 11:52:47;;;;;;;;;;;;;;;15.19;31.13;100940.66;5091395;28;19912;-38
2023/02/15 11:55:16;;;;;;;;;;;;;;;14.88;31.49;100932.34;5091089;28;19961;-37
2023/02/15 11:57:43;;;;;;;;;;;;;;;14.43;32.25;100930.94;5091024;28;19939;-37
2023/02/15 12:00:22;;;;;;;;;;;;;;;14.78;31.20;100930.88;5091046;28;20376;-37
2023/02/15 12:02:50;;;;;;;;;;;;;;;15.31;30.95;100927.47;5091094;28;19912;-37
2023/02/15 12:05:18;;;;;;;;;;;;;;;14.80;31.39;100928.00;5091190;28;19956;-39
2023/02/15 12:07:50;;;;;;;;;;;;;;;15.63;29.77;100922.28;5089992;28;19939;-37
2023/02/15 12:10:16;;;;;;;;;;;;;;;16.32;29.24;100918.22;5089887;28;20018;-36
2023/02/15 12:12:42;;;;;;;;;;;;;;;15.24;30.57;100919.41;5090040;28;19919;-37
2023/02/15 12:15:08;;;;;;;;;;;;;;;14.61;31.21;100922.38;5091015;28;19912;-37
2023/02/15 12:17:41;;;;;;;;;;;;;;;15.94;30.03;100912.78;5090843;28;19916;-37
2023/02/15 12:20:28;;;;;;;;;;;;;;;16.15;29.26;100909.00;5090892;28;19934;-36
2023/02/15 12:23:02;;;;;;;;;;;;;;;15.51;29.76;100926.63;5090769;28;19924;-38
2023/02/15 12:25:41;;;;;;;;;;;;;;;15.97;29.39;100915.03;5091106;28;19912;-36
2023/02/15 12:28:36;;;;;;;;;;;;;;;15.22;30.20;100917.97;5090699;28;19947;-38
2023/02/15 12:31:20;;;;;;;;;;;;;;;14.28;31.49;100914.22;5089872;28;20065;-36
2023/02/15 12:33:47;;;;;;;;;;;;;;;15.61;29.63;100910.91;5090674;28;20391;-37
2023/02/15 12:36:24;;;;;;;;;;;;;;;15.80;30.03;100910.13;5090620;28;20348;-37
2023/02/15 12:39:03;;;;;;;;;;;;;;;15.54;29.78;100913.63;5090363;28;19912;-37
2023/02/15 12:41:28;;;;;;;;;;;;;;;15.47;30.22;100904.75;5090017;28;19974;-37
2023/02/15 12:44:04;;;;;;;;;;;;;;;15.54;28.72;100908.25;5089953;28;20375;-38
2023/02/15 12:46:30;;;;;;;;;;;;;;;15.23;29.31;100904.34;5089589;28;19912;-37
2023/02/15 12:49:14;;;;;;;;;;;;;;;15.10;29.08;100896.31;5089817;28;19938;-38
2023/02/15 12:51:43;;;;;;;;;;;;;;;15.43;29.21;100874.84;5092150;28;20009;-36
2023/02/15 12:54:28;;;;;;;;;;;;;;;14.78;30.83;100893.38;5095064;28;19919;-37
2023/02/15 12:56:53;;;;;;;;;;;;;;;15.61;29.48;100898.34;5094597;28;19923;-37
2023/02/15 12:59:20;;;;;;;;;;;;;;;15.70;28.91;100893.56;5094403;28;19912;-38
2023/02/15 13:01:45;;;;;;;;;;;;;;;15.21;29.58;100895.69;5094369;28;19919;-37
2023/02/15 13:04:23;;;;;;;;;;;;;;;14.75;29.62;100896.44;5094904;28;19916;-37
2023/02/15 13:06:51;;;;;;;;;;;;;;;15.70;28.82;100893.56;5094240;28;20038;-37
2023/02/15 13:09:16;;;;;;;;;;;;;;;15.99;28.44;100886.94;5094506;28;20012;-37
2023/02/15 13:11:43;;;;;;;;;;;;;;;15.63;28.63;100885.56;5094065;28;19935;-37
2023/02/15 13:14:18;;;;;;;;;;;;;;;16.19;28.33;100888.72;5094365;28;19942;-38
2023/02/15 13:16:45;;;;;;;;;;;;;;;16.80;27.21;100893.56;5094333;28;19951;-37
2023/02/15 13:19:31;;;;;;;;;;;;;;;16.08;28.45;100886.72;5093909;28;19912;-36
2023/02/15 13:21:57;;;;;;;;;;;;;;;15.62;28.20;100880.38;5094360;28;19927;-37